sensor_id;sensor_type;location;lat;lon;timestamp;temperature;humidity
58519;DHT22;44310;48.106;12.008;2023-02-18T00:01:29;15.20;90.70
58519;DHT22;44310;48.106;12.008;2023-02-18T00:03:57;15.20;90.70
58519;DHT22;44310;48.106;12.008;2023-02-18T00:06:28;15.50;90.80
58519;DHT22;44310;48.106;12.008;2023-02-18T00:08:56;14.80;90.70
58519;DHT22;44310;48.106;12.008;2023-02-18T00:11:26;15.30;90.70
58519;DHT22;44310;48.106;12.008;2023-02-18T00:13:56;15.70;90.80
58519;DHT22;44310;48.106;12.008;2023-02-18T00:16:25;15.20;90.70
58519;DHT22;44310;48.106;12.008;2023-02-18T00:19:01;15.30;90.80
58519;DHT22;44310;48.106;12.008;2023-02-18T00:21:28;14.90;90.80
58519;DHT22;44310;48.106;12.008;2023-02-18T00:23:56;15.20;90.90
58519;DHT22;44310;48.106;12.008;2023-02-18T00:26:23;15.30;91.00
58519;DHT22;44310;48.106;12.008;2023-02-18T00:28:51;15.50;91.10
58519;DHT22;44310;48.106;12.008;2023-02-18T00:31:25;15.30;91.10
58519;DHT22;44310;48.106;12.008;2023-02-18T00:33:53;15.30;91.20
58519;DHT22;44310;48.106;12.008;2023-02-18T00:36:21;15.30;91.40
58519;DHT22;44310;48.106;12.008;2023-02-18T00:38:51;15.30;91.50
58519;DHT22;44310;48.106;12.008;2023-02-18T00:41:20;15.40;91.50
58519;DHT22;44310;48.106;12.008;2023-02-18T00:43:47;15.60;91.60
58519;DHT22;44310;48.106;12.008;2023-02-18T00:46:14;15.20;91.40
58519;DHT22;44310;48.106;12.008;2023-02-18T00:48:42;15.60;91.50
58519;DHT22;44310;48.106;12.008;2023-02-18T00:51:10;15.20;91.50
58519;DHT22;44310;48.106;12.008;2023-02-18T00:53:38;15.30;91.60
58519;DHT22;44310;48.106;12.008;2023-02-18T00:56:05;15.30;91.60
58519;DHT22;44310;48.106;12.008;2023-02-18T00:58:34;15.60;91.70
58519;DHT22;44310;48.106;12.008;2023-02-18T01:01:03;15.00;91.70
58519;DHT22;44310;48.106;12.008;2023-02-18T01:03:34;15.30;91.90
58519;DHT22;44310;48.106;12.008;2023-02-18T01:06:03;15.30;91.90
58519;DHT22;44310;48.106;12.008;2023-02-18T01:08:30;15.40;91.90
58519;DHT22;44310;48.106;12.008;2023-02-18T01:10:58;15.30;91.80
58519;DHT22;44310;48.106;12.008;2023-02-18T01:13:26;15.30;91.90
58519;DHT22;44310;48.106;12.008;2023-02-18T01:15:53;15.30;92.00
58519;DHT22;44310;48.106;12.008;2023-02-18T01:18:21;15.30;92.00
58519;DHT22;44310;48.106;12.008;2023-02-18T01:20:48;15.30;92.10
58519;DHT22;44310;48.106;12.008;2023-02-18T01:23:16;15.30;92.00
58519;DHT22;44310;48.106;12.008;2023-02-18T01:25:43;15.40;92.00
58519;DHT22;44310;48.106;12.008;2023-02-18T01:28:12;15.30;91.90
58519;DHT22;44310;48.106;12.008;2023-02-18T01:30:40;15.30;92.00
58519;DHT22;44310;48.106;12.008;2023-02-18T01:33:08;15.30;92.00
58519;DHT22;44310;48.106;12.008;2023-02-18T01:35:38;14.90;91.90
58519;DHT22;44310;48.106;12.008;2023-02-18T01:38:05;15.20;91.80
58519;DHT22;44310;48.106;12.008;2023-02-18T01:40:32;15.80;91.90
58519;DHT22;44310;48.106;12.008;2023-02-18T01:43:00;15.20;91.80
58519;DHT22;44310;48.106;12.008;2023-02-18T01:50:33;15.20;92.00
58519;DHT22;44310;48.106;12.008;2023-02-18T01:53:01;15.20;92.20
58519;DHT22;44310;48.106;12.008;2023-02-18T01:55:28;16.20;92.60
58519;DHT22;44310;48.106;12.008;2023-02-18T01:57:55;15.30;92.50
58519;DHT22;44310;48.106;12.008;2023-02-18T02:00:23;15.30;92.50
58519;DHT22;44310;48.106;12.008;2023-02-18T02:02:51;15.30;92.40
58519;DHT22;44310;48.106;12.008;2023-02-18T02:05:20;15.30;92.40
58519;DHT22;44310;48.106;12.008;2023-02-18T02:07:50;15.30;92.50
58519;DHT22;44310;48.106;12.008;2023-02-18T02:10:19;14.80;92.30
58519;DHT22;44310;48.106;12.008;2023-02-18T02:12:51;14.60;92.30
58519;DHT22;44310;48.106;12.008;2023-02-18T02:16:25;15.30;92.60
58519;DHT22;44310;48.106;12.008;2023-02-18T02:21:19;15.30;92.50
58519;DHT22;44310;48.106;12.008;2023-02-18T02:26:57;15.30;92.50
58519;DHT22;44310;48.106;12.008;2023-02-18T02:38:02;15.30;92.60
58519;DHT22;44310;48.106;12.008;2023-02-18T02:54:26;15.20;92.20
58519;DHT22;44310;48.106;12.008;2023-02-18T02:59:42;15.10;92.20
58519;DHT22;44310;48.106;12.008;2023-02-18T03:13:09;15.20;92.50
58519;DHT22;44310;48.106;12.008;2023-02-18T03:23:43;15.20;92.40
58519;DHT22;44310;48.106;12.008;2023-02-18T03:26:14;15.20;92.40
58519;DHT22;44310;48.106;12.008;2023-02-18T03:28:42;15.10;92.40
58519;DHT22;44310;48.106;12.008;2023-02-18T03:31:17;15.20;92.40
58519;DHT22;44310;48.106;12.008;2023-02-18T03:34:01;15.20;92.30
58519;DHT22;44310;48.106;12.008;2023-02-18T03:36:31;15.10;92.60
58519;DHT22;44310;48.106;12.008;2023-02-18T03:39:09;15.20;92.40
58519;DHT22;44310;48.106;12.008;2023-02-18T03:41:37;15.10;92.50
58519;DHT22;44310;48.106;12.008;2023-02-18T03:44:07;15.20;92.60
58519;DHT22;44310;48.106;12.008;2023-02-18T03:46:36;15.20;92.60
58519;DHT22;44310;48.106;12.008;2023-02-18T03:49:04;15.20;92.60
58519;DHT22;44310;48.106;12.008;2023-02-18T03:51:32;15.10;92.70
58519;DHT22;44310;48.106;12.008;2023-02-18T03:53:59;15.10;92.80
58519;DHT22;44310;48.106;12.008;2023-02-18T03:56:26;15.10;92.80
58519;DHT22;44310;48.106;12.008;2023-02-18T03:58:53;15.20;93.20
58519;DHT22;44310;48.106;12.008;2023-02-18T04:01:20;15.00;93.40
58519;DHT22;44310;48.106;12.008;2023-02-18T04:03:47;15.30;93.50
58519;DHT22;44310;48.106;12.008;2023-02-18T04:06:14;15.30;93.40
58519;DHT22;44310;48.106;12.008;2023-02-18T04:08:41;15.30;93.40
58519;DHT22;44310;48.106;12.008;2023-02-18T04:11:09;15.30;93.50
58519;DHT22;44310;48.106;12.008;2023-02-18T04:13:36;14.60;93.20
58519;DHT22;44310;48.106;12.008;2023-02-18T04:16:03;15.30;93.30
58519;DHT22;44310;48.106;12.008;2023-02-18T04:18:30;15.30;93.20
58519;DHT22;44310;48.106;12.008;2023-02-18T04:20:57;15.20;93.20
58519;DHT22;44310;48.106;12.008;2023-02-18T04:23:25;15.40;93.30
58519;DHT22;44310;48.106;12.008;2023-02-18T04:25:52;15.20;93.20
58519;DHT22;44310;48.106;12.008;2023-02-18T04:28:20;15.20;93.20
58519;DHT22;44310;48.106;12.008;2023-02-18T04:30:47;15.20;93.20
58519;DHT22;44310;48.106;12.008;2023-02-18T04:33:15;15.20;93.20
58519;DHT22;44310;48.106;12.008;2023-02-18T04:35:42;15.20;93.20
58519;DHT22;44310;48.106;12.008;2023-02-18T04:38:10;15.20;93.30
58519;DHT22;44310;48.106;12.008;2023-02-18T04:40:37;15.30;93.50
58519;DHT22;44310;48.106;12.008;2023-02-18T04:43:04;15.30;93.40
58519;DHT22;44310;48.106;12.008;2023-02-18T04:45:32;15.30;93.40
58519;DHT22;44310;48.106;12.008;2023-02-18T04:47:59;15.70;93.40
58519;DHT22;44310;48.106;12.008;2023-02-18T04:50:26;15.30;93.30
58519;DHT22;44310;48.106;12.008;2023-02-18T04:52:53;15.10;93.20
58519;DHT22;44310;48.106;12.008;2023-02-18T04:55:20;15.30;93.20
58519;DHT22;44310;48.106;12.008;2023-02-18T04:57:47;15.30;93.10
58519;DHT22;44310;48.106;12.008;2023-02-18T05:00:16;15.60;93.20
58519;DHT22;44310;48.106;12.008;2023-02-18T05:02:45;15.30;93.10
58519;DHT22;44310;48.106;12.008;2023-02-18T05:05:12;15.30;93.10
58519;DHT22;44310;48.106;12.008;2023-02-18T05:07:39;15.30;93.10
58519;DHT22;44310;48.106;12.008;2023-02-18T05:10:14;15.60;93.10
58519;DHT22;44310;48.106;12.008;2023-02-18T05:12:42;15.30;93.30
58519;DHT22;44310;48.106;12.008;2023-02-18T05:15:09;15.40;93.00
58519;DHT22;44310;48.106;12.008;2023-02-18T05:17:36;15.40;93.00
58519;DHT22;44310;48.106;12.008;2023-02-18T05:20:04;15.30;93.10
58519;DHT22;44310;48.106;12.008;2023-02-18T05:22:32;15.30;93.10
58519;DHT22;44310;48.106;12.008;2023-02-18T05:24:59;15.30;93.20
58519;DHT22;44310;48.106;12.008;2023-02-18T05:27:26;15.40;93.20
58519;DHT22;44310;48.106;12.008;2023-02-18T05:29:53;15.40;93.20
58519;DHT22;44310;48.106;12.008;2023-02-18T05:32:20;15.30;93.10
58519;DHT22;44310;48.106;12.008;2023-02-18T05:34:47;15.40;93.20
58519;DHT22;44310;48.106;12.008;2023-02-18T05:37:14;15.40;93.20
58519;DHT22;44310;48.106;12.008;2023-02-18T05:39:43;15.30;93.20
58519;DHT22;44310;48.106;12.008;2023-02-18T05:42:10;15.90;93.40
58519;DHT22;44310;48.106;12.008;2023-02-18T05:44:37;15.30;93.30
58519;DHT22;44310;48.106;12.008;2023-02-18T05:47:07;15.20;93.30
58519;DHT22;44310;48.106;12.008;2023-02-18T05:49:39;15.20;93.30
58519;DHT22;44310;48.106;12.008;2023-02-18T05:52:06;15.20;93.30
58519;DHT22;44310;48.106;12.008;2023-02-18T05:54:34;15.20;93.40
58519;DHT22;44310;48.106;12.008;2023-02-18T05:57:02;15.20;93.40
58519;DHT22;44310;48.106;12.008;2023-02-18T05:59:29;15.20;93.50
58519;DHT22;44310;48.106;12.008;2023-02-18T06:01:56;15.20;93.50
58519;DHT22;44310;48.106;12.008;2023-02-18T06:04:24;15.90;93.80
58519;DHT22;44310;48.106;12.008;2023-02-18T06:06:51;15.20;93.60
58519;DHT22;44310;48.106;12.008;2023-02-18T06:09:18;14.50;93.30
58519;DHT22;44310;48.106;12.008;2023-02-18T06:11:45;15.30;93.80
58519;DHT22;44310;48.106;12.008;2023-02-18T06:14:12;15.30;93.90
58519;DHT22;44310;48.106;12.008;2023-02-18T06:16:39;15.40;93.90
58519;DHT22;44310;48.106;12.008;2023-02-18T06:19:07;15.40;93.90
58519;DHT22;44310;48.106;12.008;2023-02-18T06:21:34;15.70;93.90
58519;DHT22;44310;48.106;12.008;2023-02-18T06:24:01;15.40;93.80
58519;DHT22;44310;48.106;12.008;2023-02-18T06:26:28;15.50;93.90
58519;DHT22;44310;48.106;12.008;2023-02-18T06:28:55;15.40;93.80
58519;DHT22;44310;48.106;12.008;2023-02-18T06:31:22;15.40;93.70
58519;DHT22;44310;48.106;12.008;2023-02-18T06:33:49;15.40;93.80
58519;DHT22;44310;48.106;12.008;2023-02-18T06:36:17;15.40;93.90
58519;DHT22;44310;48.106;12.008;2023-02-18T06:38:44;15.30;93.80
58519;DHT22;44310;48.106;12.008;2023-02-18T06:41:13;15.40;93.80
58519;DHT22;44310;48.106;12.008;2023-02-18T06:43:40;15.10;93.80
58519;DHT22;44310;48.106;12.008;2023-02-18T06:46:07;15.40;93.80
58519;DHT22;44310;48.106;12.008;2023-02-18T06:48:35;15.40;93.80
58519;DHT22;44310;48.106;12.008;2023-02-18T06:51:02;15.70;93.80
58519;DHT22;44310;48.106;12.008;2023-02-18T06:53:29;15.40;93.70
58519;DHT22;44310;48.106;12.008;2023-02-18T06:55:57;15.40;93.60
58519;DHT22;44310;48.106;12.008;2023-02-18T06:58:24;15.40;93.60
58519;DHT22;44310;48.106;12.008;2023-02-18T07:00:51;15.40;93.50
58519;DHT22;44310;48.106;12.008;2023-02-18T07:03:18;15.40;93.50
58519;DHT22;44310;48.106;12.008;2023-02-18T07:05:46;15.40;93.40
58519;DHT22;44310;48.106;12.008;2023-02-18T07:08:13;15.50;93.40
58519;DHT22;44310;48.106;12.008;2023-02-18T07:10:40;15.40;93.40
58519;DHT22;44310;48.106;12.008;2023-02-18T07:13:07;15.40;93.30
58519;DHT22;44310;48.106;12.008;2023-02-18T07:15:34;15.40;93.30
58519;DHT22;44310;48.106;12.008;2023-02-18T07:18:01;14.90;93.10
58519;DHT22;44310;48.106;12.008;2023-02-18T07:20:29;15.40;93.10
58519;DHT22;44310;48.106;12.008;2023-02-18T07:22:56;15.40;93.10
58519;DHT22;44310;48.106;12.008;2023-02-18T07:25:23;15.40;93.10
58519;DHT22;44310;48.106;12.008;2023-02-18T07:27:51;15.40;93.10
58519;DHT22;44310;48.106;12.008;2023-02-18T07:30:19;15.40;93.10
58519;DHT22;44310;48.106;12.008;2023-02-18T07:32:46;15.40;93.10
58519;DHT22;44310;48.106;12.008;2023-02-18T07:35:15;15.40;93.10
58519;DHT22;44310;48.106;12.008;2023-02-18T07:37:46;15.40;93.20
58519;DHT22;44310;48.106;12.008;2023-02-18T07:40:17;15.10;93.10
58519;DHT22;44310;48.106;12.008;2023-02-18T07:42:44;15.40;93.20
58519;DHT22;44310;48.106;12.008;2023-02-18T07:45:12;15.40;93.20
58519;DHT22;44310;48.106;12.008;2023-02-18T07:47:39;15.40;93.20
58519;DHT22;44310;48.106;12.008;2023-02-18T07:50:08;15.40;93.20
58519;DHT22;44310;48.106;12.008;2023-02-18T07:52:36;15.40;93.10
58519;DHT22;44310;48.106;12.008;2023-02-18T07:55:03;15.60;93.10
58519;DHT22;44310;48.106;12.008;2023-02-18T07:57:30;15.40;93.10
58519;DHT22;44310;48.106;12.008;2023-02-18T07:59:57;15.40;93.10
58519;DHT22;44310;48.106;12.008;2023-02-18T08:02:25;15.40;92.90
58519;DHT22;44310;48.106;12.008;2023-02-18T08:04:52;15.50;92.90
58519;DHT22;44310;48.106;12.008;2023-02-18T08:07:20;15.40;92.90
58519;DHT22;44310;48.106;12.008;2023-02-18T08:09:48;15.80;92.90
58519;DHT22;44310;48.106;12.008;2023-02-18T08:12:16;15.30;92.70
58519;DHT22;44310;48.106;12.008;2023-02-18T08:14:44;15.40;92.70
58519;DHT22;44310;48.106;12.008;2023-02-18T08:17:11;16.10;92.80
58519;DHT22;44310;48.106;12.008;2023-02-18T08:19:38;15.30;92.50
58519;DHT22;44310;48.106;12.008;2023-02-18T08:22:05;15.30;92.40
58519;DHT22;44310;48.106;12.008;2023-02-18T08:24:32;15.30;92.50
58519;DHT22;44310;48.106;12.008;2023-02-18T08:26:59;15.30;92.50
58519;DHT22;44310;48.106;12.008;2023-02-18T08:29:28;15.10;92.50
58519;DHT22;44310;48.106;12.008;2023-02-18T08:31:55;15.40;92.60
58519;DHT22;44310;48.106;12.008;2023-02-18T08:34:25;16.40;92.80
58519;DHT22;44310;48.106;12.008;2023-02-18T08:36:53;15.40;92.50
58519;DHT22;44310;48.106;12.008;2023-02-18T08:39:20;16.10;92.60
58519;DHT22;44310;48.106;12.008;2023-02-18T08:41:47;15.40;92.80
58519;DHT22;44310;48.106;12.008;2023-02-18T08:44:14;15.30;92.50
58519;DHT22;44310;48.106;12.008;2023-02-18T08:46:41;15.40;92.50
58519;DHT22;44310;48.106;12.008;2023-02-18T08:49:08;15.40;92.50
58519;DHT22;44310;48.106;12.008;2023-02-18T08:51:35;15.40;92.50
58519;DHT22;44310;48.106;12.008;2023-02-18T08:54:03;15.40;92.50
58519;DHT22;44310;48.106;12.008;2023-02-18T08:56:30;15.40;92.60
58519;DHT22;44310;48.106;12.008;2023-02-18T08:58:58;15.40;92.60
58519;DHT22;44310;48.106;12.008;2023-02-18T09:01:25;15.40;92.60
58519;DHT22;44310;48.106;12.008;2023-02-18T09:03:52;15.40;92.60
58519;DHT22;44310;48.106;12.008;2023-02-18T09:06:20;15.10;92.60
58519;DHT22;44310;48.106;12.008;2023-02-18T09:08:47;15.40;92.60
58519;DHT22;44310;48.106;12.008;2023-02-18T09:11:14;15.20;92.60
58519;DHT22;44310;48.106;12.008;2023-02-18T09:13:41;14.90;92.50
58519;DHT22;44310;48.106;12.008;2023-02-18T09:16:15;15.40;92.60
58519;DHT22;44310;48.106;12.008;2023-02-18T09:18:45;15.10;92.50
58519;DHT22;44310;48.106;12.008;2023-02-18T09:21:14;15.50;92.60
58519;DHT22;44310;48.106;12.008;2023-02-18T09:23:42;15.50;92.30
58519;DHT22;44310;48.106;12.008;2023-02-18T09:26:12;15.40;92.10
58519;DHT22;44310;48.106;12.008;2023-02-18T09:28:40;15.10;87.90
58519;DHT22;44310;48.106;12.008;2023-02-18T09:31:12;14.70;90.30
58519;DHT22;44310;48.106;12.008;2023-02-18T09:33:43;14.80;88.10
58519;DHT22;44310;48.106;12.008;2023-02-18T09:36:12;14.50;87.10
58519;DHT22;44310;48.106;12.008;2023-02-18T09:38:39;15.20;85.40
58519;DHT22;44310;48.106;12.008;2023-02-18T09:41:14;14.40;89.40
58519;DHT22;44310;48.106;12.008;2023-02-18T09:43:48;14.40;90.10
58519;DHT22;44310;48.106;12.008;2023-02-18T09:46:23;14.60;90.60
58519;DHT22;44310;48.106;12.008;2023-02-18T09:48:54;14.60;90.80
58519;DHT22;44310;48.106;12.008;2023-02-18T09:51:21;14.90;91.00
58519;DHT22;44310;48.106;12.008;2023-02-18T09:53:49;15.00;91.20
58519;DHT22;44310;48.106;12.008;2023-02-18T09:56:31;15.20;91.30
58519;DHT22;44310;48.106;12.008;2023-02-18T09:59:03;15.30;91.30
58519;DHT22;44310;48.106;12.008;2023-02-18T10:01:37;15.30;91.40
58519;DHT22;44310;48.106;12.008;2023-02-18T10:06:45;15.40;91.80
58519;DHT22;44310;48.106;12.008;2023-02-18T10:09:21;15.60;91.70
58519;DHT22;44310;48.106;12.008;2023-02-18T10:11:55;15.40;91.70
58519;DHT22;44310;48.106;12.008;2023-02-18T10:14:24;15.40;91.70
58519;DHT22;44310;48.106;12.008;2023-02-18T10:16:52;15.40;91.70
58519;DHT22;44310;48.106;12.008;2023-02-18T10:19:37;15.50;91.70
58519;DHT22;44310;48.106;12.008;2023-02-18T10:22:08;15.50;91.80
58519;DHT22;44310;48.106;12.008;2023-02-18T10:27:22;15.50;91.70
58519;DHT22;44310;48.106;12.008;2023-02-18T10:29:51;15.50;91.70
58519;DHT22;44310;48.106;12.008;2023-02-18T10:32:32;15.50;91.80
58519;DHT22;44310;48.106;12.008;2023-02-18T10:35:24;15.50;91.80
58519;DHT22;44310;48.106;12.008;2023-02-18T10:51:36;15.60;92.20
58519;DHT22;44310;48.106;12.008;2023-02-18T10:54:03;15.60;92.20
58519;DHT22;44310;48.106;12.008;2023-02-18T10:56:39;15.60;92.30
58519;DHT22;44310;48.106;12.008;2023-02-18T10:59:21;15.60;92.30
58519;DHT22;44310;48.106;12.008;2023-02-18T11:02:03;15.60;92.30
58519;DHT22;44310;48.106;12.008;2023-02-18T11:04:37;15.60;92.30
58519;DHT22;44310;48.106;12.008;2023-02-18T11:07:23;15.60;92.30
58519;DHT22;44310;48.106;12.008;2023-02-18T11:10:18;15.60;92.30
58519;DHT22;44310;48.106;12.008;2023-02-18T11:12:50;15.60;92.30
58519;DHT22;44310;48.106;12.008;2023-02-18T11:15:21;15.60;92.30
58519;DHT22;44310;48.106;12.008;2023-02-18T11:17:52;15.60;92.40
58519;DHT22;44310;48.106;12.008;2023-02-18T11:20:31;15.60;92.40
58519;DHT22;44310;48.106;12.008;2023-02-18T11:25:38;15.60;92.50
58519;DHT22;44310;48.106;12.008;2023-02-18T11:30:40;14.80;91.50
58519;DHT22;44310;48.106;12.008;2023-02-18T11:33:32;15.50;85.20
58519;DHT22;44310;48.106;12.008;2023-02-18T11:36:27;15.30;90.00
58519;DHT22;44310;48.106;12.008;2023-02-18T11:39:26;15.40;90.70
58519;DHT22;44310;48.106;12.008;2023-02-18T11:41:58;15.70;90.80
58519;DHT22;44310;48.106;12.008;2023-02-18T11:44:31;15.70;91.00
58519;DHT22;44310;48.106;12.008;2023-02-18T11:47:05;15.70;91.10
58519;DHT22;44310;48.106;12.008;2023-02-18T11:49:34;14.90;83.30
58519;DHT22;44310;48.106;12.008;2023-02-18T11:54:36;15.30;89.20
58519;DHT22;44310;48.106;12.008;2023-02-18T11:57:05;15.30;90.20
58519;DHT22;44310;48.106;12.008;2023-02-18T11:59:35;15.20;90.40
58519;DHT22;44310;48.106;12.008;2023-02-18T12:04:44;15.20;91.10
58519;DHT22;44310;48.106;12.008;2023-02-18T12:07:16;15.10;91.20
58519;DHT22;44310;48.106;12.008;2023-02-18T12:09:50;15.10;91.10
58519;DHT22;44310;48.106;12.008;2023-02-18T12:12:26;15.10;91.00
58519;DHT22;44310;48.106;12.008;2023-02-18T12:14:55;15.00;91.00
58519;DHT22;44310;48.106;12.008;2023-02-18T12:23:05;15.00;91.10
58519;DHT22;44310;48.106;12.008;2023-02-18T12:25:54;15.00;90.90
58519;DHT22;44310;48.106;12.008;2023-02-18T12:31:38;14.90;90.90
58519;DHT22;44310;48.106;12.008;2023-02-18T12:36:57;14.90;91.20
58519;DHT22;44310;48.106;12.008;2023-02-18T12:40:00;14.90;91.00
58519;DHT22;44310;48.106;12.008;2023-02-18T12:42:39;14.90;91.10
58519;DHT22;44310;48.106;12.008;2023-02-18T12:50:45;14.90;91.10
58519;DHT22;44310;48.106;12.008;2023-02-18T12:56:38;14.70;78.40
58519;DHT22;44310;48.106;12.008;2023-02-18T13:11:35;14.90;84.80
58519;DHT22;44310;48.106;12.008;2023-02-18T13:14:17;15.00;86.00
58519;DHT22;44310;48.106;12.008;2023-02-18T13:16:50;15.10;86.50
58519;DHT22;44310;48.106;12.008;2023-02-18T13:19:30;15.10;86.90
58519;DHT22;44310;48.106;12.008;2023-02-18T13:22:02;15.10;86.70
58519;DHT22;44310;48.106;12.008;2023-02-18T13:24:42;15.10;87.00
58519;DHT22;44310;48.106;12.008;2023-02-18T13:27:21;14.30;87.40
58519;DHT22;44310;48.106;12.008;2023-02-18T13:33:28;15.20;88.40
58519;DHT22;44310;48.106;12.008;2023-02-18T13:36:24;15.10;87.00
58519;DHT22;44310;48.106;12.008;2023-02-18T13:39:03;15.20;87.50
58519;DHT22;44310;48.106;12.008;2023-02-18T13:41:40;15.10;87.60
58519;DHT22;44310;48.106;12.008;2023-02-18T13:46:52;15.10;88.00
58519;DHT22;44310;48.106;12.008;2023-02-18T13:49:33;15.00;87.40
58519;DHT22;44310;48.106;12.008;2023-02-18T13:52:02;15.10;87.30
58519;DHT22;44310;48.106;12.008;2023-02-18T13:54:44;15.10;87.60
58519;DHT22;44310;48.106;12.008;2023-02-18T13:57:18;15.10;87.70
58519;DHT22;44310;48.106;12.008;2023-02-18T13:59:54;15.10;87.30
58519;DHT22;44310;48.106;12.008;2023-02-18T14:04:55;15.00;87.30
58519;DHT22;44310;48.106;12.008;2023-02-18T14:18:24;15.00;87.20
58519;DHT22;44310;48.106;12.008;2023-02-18T14:21:03;15.00;87.20
58519;DHT22;44310;48.106;12.008;2023-02-18T14:23:39;15.00;87.20
58519;DHT22;44310;48.106;12.008;2023-02-18T14:28:55;15.00;87.20
58519;DHT22;44310;48.106;12.008;2023-02-18T14:31:32;15.00;87.10
58519;DHT22;44310;48.106;12.008;2023-02-18T14:34:16;15.00;87.20
58519;DHT22;44310;48.106;12.008;2023-02-18T14:48:10;14.60;72.60
58519;DHT22;44310;48.106;12.008;2023-02-18T14:50:43;14.10;75.40
58519;DHT22;44310;48.106;12.008;2023-02-18T14:53:15;14.70;81.50
58519;DHT22;44310;48.106;12.008;2023-02-18T14:55:50;13.80;83.70
58519;DHT22;44310;48.106;12.008;2023-02-18T14:58:35;14.70;85.30
58519;DHT22;44310;48.106;12.008;2023-02-18T15:01:12;14.90;85.60
58519;DHT22;44310;48.106;12.008;2023-02-18T15:03:41;14.90;85.40
58519;DHT22;44310;48.106;12.008;2023-02-18T15:06:29;15.00;85.80
58519;DHT22;44310;48.106;12.008;2023-02-18T15:09:43;14.60;77.50
58519;DHT22;44310;48.106;12.008;2023-02-18T15:11:51;14.60;80.80
58519;DHT22;44310;48.106;12.008;2023-02-18T15:14:28;14.70;84.30
58519;DHT22;44310;48.106;12.008;2023-02-18T15:16:56;14.80;85.00
58519;DHT22;44310;48.106;12.008;2023-02-18T15:19:27;14.60;84.90
58519;DHT22;44310;48.106;12.008;2023-02-18T15:21:56;14.60;84.70
58519;DHT22;44310;48.106;12.008;2023-02-18T15:24:29;14.60;75.60
58519;DHT22;44310;48.106;12.008;2023-02-18T15:27:00;14.50;78.60
58519;DHT22;44310;48.106;12.008;2023-02-18T15:29:35;14.20;82.10
58519;DHT22;44310;48.106;12.008;2023-02-18T15:32:24;14.80;83.70
58519;DHT22;44310;48.106;12.008;2023-02-18T15:34:58;14.90;84.50
58519;DHT22;44310;48.106;12.008;2023-02-18T15:37:30;15.00;84.90
58519;DHT22;44310;48.106;12.008;2023-02-18T15:39:57;15.00;85.70
58519;DHT22;44310;48.106;12.008;2023-02-18T15:42:29;15.10;86.10
58519;DHT22;44310;48.106;12.008;2023-02-18T15:45:29;15.10;87.20
58519;DHT22;44310;48.106;12.008;2023-02-18T15:47:58;15.10;83.00
58519;DHT22;44310;48.106;12.008;2023-02-18T15:50:37;15.10;86.90
58519;DHT22;44310;48.106;12.008;2023-02-18T15:53:15;15.10;87.50
58519;DHT22;44310;48.106;12.008;2023-02-18T15:55:46;15.10;88.10
58519;DHT22;44310;48.106;12.008;2023-02-18T15:58:27;15.10;88.30
58519;DHT22;44310;48.106;12.008;2023-02-18T16:01:00;15.10;87.50
58519;DHT22;44310;48.106;12.008;2023-02-18T16:06:15;15.10;89.00
58519;DHT22;44310;48.106;12.008;2023-02-18T16:11:52;13.80;70.90
58519;DHT22;44310;48.106;12.008;2023-02-18T16:14:27;13.80;77.70
58519;DHT22;44310;48.106;12.008;2023-02-18T16:20:00;14.40;84.10
58519;DHT22;44310;48.106;12.008;2023-02-18T16:25:26;14.90;85.40
58519;DHT22;44310;48.106;12.008;2023-02-18T16:30:31;15.10;86.70
58519;DHT22;44310;48.106;12.008;2023-02-18T16:32:58;15.20;87.30
58519;DHT22;44310;48.106;12.008;2023-02-18T16:35:28;15.90;88.10
58519;DHT22;44310;48.106;12.008;2023-02-18T16:38:03;15.00;88.00
58519;DHT22;44310;48.106;12.008;2023-02-18T16:40:36;15.30;88.30
58519;DHT22;44310;48.106;12.008;2023-02-18T16:43:22;15.40;88.90
58519;DHT22;44310;48.106;12.008;2023-02-18T16:45:55;15.40;89.20
58519;DHT22;44310;48.106;12.008;2023-02-18T16:48:31;15.40;89.20
58519;DHT22;44310;48.106;12.008;2023-02-18T16:51:00;15.20;89.40
58519;DHT22;44310;48.106;12.008;2023-02-18T16:53:28;15.40;89.60
58519;DHT22;44310;48.106;12.008;2023-02-18T16:55:55;15.50;89.80
58519;DHT22;44310;48.106;12.008;2023-02-18T16:58:22;15.60;90.00
58519;DHT22;44310;48.106;12.008;2023-02-18T17:00:50;15.50;90.10
58519;DHT22;44310;48.106;12.008;2023-02-18T17:03:19;15.50;90.30
58519;DHT22;44310;48.106;12.008;2023-02-18T17:05:46;16.60;90.60
58519;DHT22;44310;48.106;12.008;2023-02-18T17:08:25;15.30;90.60
58519;DHT22;44310;48.106;12.008;2023-02-18T17:10:55;15.60;90.50
58519;DHT22;44310;48.106;12.008;2023-02-18T17:13:25;15.60;90.40
58519;DHT22;44310;48.106;12.008;2023-02-18T17:15:54;15.50;90.30
58519;DHT22;44310;48.106;12.008;2023-02-18T17:18:22;15.60;90.30
58519;DHT22;44310;48.106;12.008;2023-02-18T17:20:51;15.50;88.10
58519;DHT22;44310;48.106;12.008;2023-02-18T17:23:21;15.40;90.10
58519;DHT22;44310;48.106;12.008;2023-02-18T17:25:50;15.70;90.30
58519;DHT22;44310;48.106;12.008;2023-02-18T17:28:17;15.50;90.40
58519;DHT22;44310;48.106;12.008;2023-02-18T17:30:47;15.50;90.40
58519;DHT22;44310;48.106;12.008;2023-02-18T17:33:17;15.40;90.40
58519;DHT22;44310;48.106;12.008;2023-02-18T17:35:44;15.40;90.50
58519;DHT22;44310;48.106;12.008;2023-02-18T17:38:13;15.50;90.60
58519;DHT22;44310;48.106;12.008;2023-02-18T17:40:41;15.50;90.60
58519;DHT22;44310;48.106;12.008;2023-02-18T17:43:12;15.50;90.70
58519;DHT22;44310;48.106;12.008;2023-02-18T17:45:52;15.50;90.80
58519;DHT22;44310;48.106;12.008;2023-02-18T17:48:20;15.50;90.80
58519;DHT22;44310;48.106;12.008;2023-02-18T17:50:47;15.60;90.90
58519;DHT22;44310;48.106;12.008;2023-02-18T17:53:15;15.60;90.80
58519;DHT22;44310;48.106;12.008;2023-02-18T17:55:44;15.70;90.90
58519;DHT22;44310;48.106;12.008;2023-02-18T17:58:13;15.50;90.80
58519;DHT22;44310;48.106;12.008;2023-02-18T18:00:47;17.00;91.30
58519;DHT22;44310;48.106;12.008;2023-02-18T18:03:15;15.60;90.90
58519;DHT22;44310;48.106;12.008;2023-02-18T18:05:45;15.60;90.90
58519;DHT22;44310;48.106;12.008;2023-02-18T18:08:15;15.60;91.00
58519;DHT22;44310;48.106;12.008;2023-02-18T18:10:50;15.60;91.00
58519;DHT22;44310;48.106;12.008;2023-02-18T18:13:23;15.60;91.20
58519;DHT22;44310;48.106;12.008;2023-02-18T18:15:51;15.60;91.00
58519;DHT22;44310;48.106;12.008;2023-02-18T18:18:18;15.20;90.90
58519;DHT22;44310;48.106;12.008;2023-02-18T18:20:55;15.70;91.00
58519;DHT22;44310;48.106;12.008;2023-02-18T18:23:23;15.60;91.00